sensor_id;sensor_type;location;lat;lon;timestamp;pressure;altitude;pressure_sealevel;temperature;humidity
43281;BME280;62175;49.416;8.690;2023-01-27T00:01:33;100955.61;;;4.72;48.52
43281;BME280;62175;49.416;8.690;2023-01-27T00:04:00;100959.83;;;4.90;48.48
43281;BME280;62175;49.416;8.690;2023-01-27T00:06:27;100963.30;;;4.70;48.55
43281;BME280;62175;49.416;8.690;2023-01-27T00:08:54;100963.44;;;4.58;48.96
43281;BME280;62175;49.416;8.690;2023-01-27T00:11:22;100964.26;;;4.29;49.02
43281;BME280;62175;49.416;8.690;2023-01-27T00:13:49;100963.59;;;4.31;49.39
43281;BME280;62175;49.416;8.690;2023-01-27T00:16:19;100960.87;;;4.69;49.12
43281;BME280;62175;49.416;8.690;2023-01-27T00:18:46;100959.30;;;4.50;49.14
43281;BME280;62175;49.416;8.690;2023-01-27T00:21:13;100957.50;;;4.68;49.70
43281;BME280;62175;49.416;8.690;2023-01-27T00:23:42;100954.34;;;4.43;49.33
43281;BME280;62175;49.416;8.690;2023-01-27T00:26:11;100955.40;;;4.94;48.91
43281;BME280;62175;49.416;8.690;2023-01-27T00:28:41;100949.23;;;5.08;49.38
43281;BME280;62175;49.416;8.690;2023-01-27T00:31:10;100949.42;;;4.42;49.26
43281;BME280;62175;49.416;8.690;2023-01-27T00:33:38;100949.22;;;4.61;49.55
43281;BME280;62175;49.416;8.690;2023-01-27T00:36:06;100947.35;;;4.56;49.65
43281;BME280;62175;49.416;8.690;2023-01-27T00:38:35;100949.93;;;4.33;49.79
43281;BME280;62175;49.416;8.690;2023-01-27T00:41:03;100950.43;;;4.35;49.70
43281;BME280;62175;49.416;8.690;2023-01-27T00:43:31;100951.08;;;4.41;49.81
43281;BME280;62175;49.416;8.690;2023-01-27T00:45:58;100949.16;;;4.61;49.45
43281;BME280;62175;49.416;8.690;2023-01-27T00:48:26;100943.81;;;4.55;49.39
43281;BME280;62175;49.416;8.690;2023-01-27T00:50:53;100936.00;;;5.31;49.08
43281;BME280;62175;49.416;8.690;2023-01-27T00:53:21;100936.28;;;5.30;49.23
43281;BME280;62175;49.416;8.690;2023-01-27T00:55:48;100934.29;;;4.83;49.60
43281;BME280;62175;49.416;8.690;2023-01-27T00:58:16;100932.03;;;5.01;49.37
43281;BME280;62175;49.416;8.690;2023-01-27T01:00:44;100935.15;;;4.94;48.96
43281;BME280;62175;49.416;8.690;2023-01-27T01:03:11;100935.19;;;4.77;49.69
43281;BME280;62175;49.416;8.690;2023-01-27T01:05:38;100933.29;;;4.87;49.04
43281;BME280;62175;49.416;8.690;2023-01-27T01:08:05;100932.91;;;4.84;49.31
43281;BME280;62175;49.416;8.690;2023-01-27T01:10:32;100930.97;;;5.04;49.10
43281;BME280;62175;49.416;8.690;2023-01-27T01:12:59;100930.85;;;5.06;49.92
43281;BME280;62175;49.416;8.690;2023-01-27T01:15:27;100931.31;;;5.01;48.49
43281;BME280;62175;49.416;8.690;2023-01-27T01:17:54;100932.49;;;4.75;49.12
43281;BME280;62175;49.416;8.690;2023-01-27T01:20:22;100934.18;;;5.03;49.00
43281;BME280;62175;49.416;8.690;2023-01-27T01:22:49;100935.07;;;4.81;48.80
43281;BME280;62175;49.416;8.690;2023-01-27T01:25:17;100936.15;;;5.10;48.42
43281;BME280;62175;49.416;8.690;2023-01-27T01:27:44;100934.92;;;4.95;48.92
43281;BME280;62175;49.416;8.690;2023-01-27T01:30:14;100933.11;;;5.41;49.26
43281;BME280;62175;49.416;8.690;2023-01-27T01:32:42;100931.89;;;5.11;48.72
43281;BME280;62175;49.416;8.690;2023-01-27T01:35:09;100931.60;;;4.96;48.81
43281;BME280;62175;49.416;8.690;2023-01-27T01:37:37;100933.15;;;5.29;49.09
43281;BME280;62175;49.416;8.690;2023-01-27T01:40:06;100932.61;;;4.90;49.06
43281;BME280;62175;49.416;8.690;2023-01-27T02:01:18;100939.09;;;4.40;50.25
43281;BME280;62175;49.416;8.690;2023-01-27T02:04:08;100939.54;;;4.86;49.80
43281;BME280;62175;49.416;8.690;2023-01-27T02:06:42;100935.49;;;4.67;49.98
43281;BME280;62175;49.416;8.690;2023-01-27T02:10:23;100936.67;;;4.60;50.27
43281;BME280;62175;49.416;8.690;2023-01-27T02:12:52;100935.62;;;4.81;49.94
43281;BME280;62175;49.416;8.690;2023-01-27T02:15:19;100932.39;;;4.92;50.08
43281;BME280;62175;49.416;8.690;2023-01-27T02:17:47;100928.99;;;4.59;49.99
43281;BME280;62175;49.416;8.690;2023-01-27T02:20:22;100927.09;;;4.88;50.12
43281;BME280;62175;49.416;8.690;2023-01-27T02:23:01;100926.59;;;4.87;50.03
43281;BME280;62175;49.416;8.690;2023-01-27T23:03:09;101293.83;;;7.10;46.51
43281;BME280;62175;49.416;8.690;2023-01-27T23:05:37;101288.86;;;7.43;45.88
43281;BME280;62175;49.416;8.690;2023-01-27T23:08:04;101289.95;;;7.24;45.49
43281;BME280;62175;49.416;8.690;2023-01-27T23:10:32;101286.01;;;7.32;45.75
43281;BME280;62175;49.416;8.690;2023-01-27T23:12:59;101286.14;;;7.42;45.56
43281;BME280;62175;49.416;8.690;2023-01-27T23:15:27;101286.23;;;7.55;46.16
43281;BME280;62175;49.416;8.690;2023-01-27T23:17:54;101290.78;;;7.35;45.75
43281;BME280;62175;49.416;8.690;2023-01-27T23:20:22;101288.49;;;7.01;46.22
43281;BME280;62175;49.416;8.690;2023-01-27T23:22:50;101291.09;;;7.68;46.96
43281;BME280;62175;49.416;8.690;2023-01-27T23:25:17;101294.70;;;7.08;46.13
43281;BME280;62175;49.416;8.690;2023-01-27T23:27:45;101294.82;;;7.49;46.14
43281;BME280;62175;49.416;8.690;2023-01-27T23:30:13;101297.63;;;7.34;46.19
43281;BME280;62175;49.416;8.690;2023-01-27T23:32:40;101296.64;;;7.56;47.09
43281;BME280;62175;49.416;8.690;2023-01-27T23:35:08;101298.50;;;7.02;46.57
43281;BME280;62175;49.416;8.690;2023-01-27T23:37:35;101297.31;;;7.17;46.76
43281;BME280;62175;49.416;8.690;2023-01-27T23:40:03;101299.54;;;7.05;46.71
43281;BME280;62175;49.416;8.690;2023-01-27T23:42:31;101297.34;;;7.35;47.51
43281;BME280;62175;49.416;8.690;2023-01-27T23:44:58;101299.56;;;7.01;46.65
43281;BME280;62175;49.416;8.690;2023-01-27T23:47:26;101301.46;;;7.20;46.38
43281;BME280;62175;49.416;8.690;2023-01-27T23:49:53;101301.24;;;7.19;46.65
43281;BME280;62175;49.416;8.690;2023-01-27T23:52:20;101304.08;;;6.95;46.43
43281;BME280;62175;49.416;8.690;2023-01-27T23:54:47;101303.04;;;6.93;46.60
43281;BME280;62175;49.416;8.690;2023-01-27T23:57:14;101302.69;;;7.08;47.69
43281;BME280;62175;49.416;8.690;2023-01-27T23:59:42;101296.54;;;7.66;47.49
